Time;durP1;ratioP1;P1;durP2;ratioP2;P2;SDS_P1;SDS_P2;PMS_P1;PMS_P2;Temp;Humidity;BMP_temperature;BMP_pressure;BME280_temperature;BME280_humidity;BME280_pressure;Samples;Min_cycle;Max_cycle;Signal;HPM_P1;HPM_P2
2022/12/31 00:02:03;;;;;;;8.68;3.40;;;;;;;;;;5050585;28;20049;-71
2022/12/31 00:04:30;;;;;;;8.02;3.22;;;;;;;;;;5050600;28;20078;-71
2022/12/31 00:06:56;;;;;;;7.72;3.30;;;;;;;;;;5034526;28;20536;-71
2022/12/31 00:09:22;;;;;;;6.32;3.33;;;;;;;;;;5050470;28;20452;-71
2022/12/31 00:11:48;;;;;;;8.75;3.38;;;;;;;;;;5051032;28;20451;-71
2022/12/31 00:14:14;;;;;;;7.47;3.78;;;;;;;;;;5050577;28;20098;-71
2022/12/31 00:16:40;;;;;;;9.23;3.50;;;;;;;;;;5050734;28;20045;-71
2022/12/31 00:19:08;;;;;;;8.43;3.50;;;;;;;;;;5050912;28;20500;-71
2022/12/31 00:21:34;;;;;;;8.93;4.28;;;;;;;;;;5050402;28;20050;-72
2022/12/31 00:24:01;;;;;;;10.35;5.20;;;;;;;;;;5050514;28;20059;-71
2022/12/31 00:26:28;;;;;;;8.25;4.28;;;;;;;;;;5033673;28;20044;-71
2022/12/31 00:28:55;;;;;;;8.88;4.60;;;;;;;;;;5050464;28;20098;-71
2022/12/31 00:31:39;;;;;;;9.55;4.75;;;;;;;;;;5050507;28;20505;-71
2022/12/31 00:34:06;;;;;;;7.82;4.93;;;;;;;;;;5050607;28;20091;-71
2022/12/31 00:36:33;;;;;;;10.25;5.88;;;;;;;;;;5033574;28;20041;-71
2022/12/31 00:39:00;;;;;;;10.27;5.63;;;;;;;;;;5050467;28;20041;-71
2022/12/31 00:41:27;;;;;;;8.80;5.43;;;;;;;;;;5033655;28;20049;-71
2022/12/31 00:43:53;;;;;;;10.35;5.40;;;;;;;;;;5050392;28;20048;-71
2022/12/31 00:46:20;;;;;;;8.02;5.28;;;;;;;;;;5050022;28;20041;-71
2022/12/31 00:48:46;;;;;;;7.95;5.07;;;;;;;;;;5050163;28;20040;-71
2022/12/31 00:51:13;;;;;;;9.93;5.10;;;;;;;;;;5050484;28;20079;-71
2022/12/31 00:53:40;;;;;;;12.02;5.95;;;;;;;;;;5049862;28;20045;-71
2022/12/31 00:56:07;;;;;;;7.68;4.93;;;;;;;;;;5050277;28;20132;-71
2022/12/31 00:58:34;;;;;;;8.50;4.72;;;;;;;;;;5051399;28;20029;-71
2022/12/31 01:01:10;;;;;;;9.77;4.60;;;;;;;;;;5051518;28;20085;-71
2022/12/31 01:03:36;;;;;;;10.32;4.75;;;;;;;;;;5052552;28;20099;-71
2022/12/31 01:06:02;;;;;;;12.20;5.57;;;;;;;;;;5070152;28;20131;-71
2022/12/31 01:08:28;;;;;;;11.02;4.53;;;;;;;;;;5053286;28;20578;-71
2022/12/31 01:13:39;;;;;;;8.93;4.10;;;;;;;;;;5071546;28;20072;-71
2022/12/31 01:16:09;;;;;;;13.70;4.03;;;;;;;;;;5073739;28;20087;-71
2022/12/31 01:18:35;;;;;;;6.93;3.50;;;;;;;;;;5073364;28;20370;-71
2022/12/31 01:21:02;;;;;;;9.80;3.83;;;;;;;;;;5073559;28;20037;-71
2022/12/31 01:23:29;;;;;;;7.07;3.60;;;;;;;;;;5073371;28;20036;-71
2022/12/31 01:25:55;;;;;;;10.65;3.50;;;;;;;;;;5073588;28;20037;-71
2022/12/31 01:28:21;;;;;;;6.55;3.05;;;;;;;;;;5073658;28;20051;-71
2022/12/31 01:30:47;;;;;;;8.63;3.03;;;;;;;;;;5056145;28;20079;-71
2022/12/31 01:33:13;;;;;;;7.53;3.03;;;;;;;;;;5073030;28;20051;-71
2022/12/31 01:35:39;;;;;;;7.13;3.05;;;;;;;;;;5070321;28;20048;-71
2022/12/31 01:38:05;;;;;;;5.97;2.33;;;;;;;;;;5073147;28;20072;-71
2022/12/31 01:40:36;;;;;;;7.22;2.55;;;;;;;;;;5074005;28;20052;-71
2022/12/31 01:43:02;;;;;;;6.22;2.20;;;;;;;;;;5056547;28;20106;-71
2022/12/31 01:45:28;;;;;;;7.30;2.10;;;;;;;;;;5074053;28;20044;-71
2022/12/31 01:47:58;;;;;;;4.93;1.90;;;;;;;;;;5073307;28;20379;-71
2022/12/31 01:50:29;;;;;;;6.47;1.83;;;;;;;;;;5056142;28;20063;-71
2022/12/31 01:52:57;;;;;;;6.43;1.73;;;;;;;;;;5073540;28;20405;-71
2022/12/31 01:55:38;;;;;;;7.20;2.08;;;;;;;;;;5072888;28;20032;-71
2022/12/31 01:58:13;;;;;;;4.78;1.40;;;;;;;;;;5056144;28;20120;-72
2022/12/31 02:00:39;;;;;;;6.93;1.90;;;;;;;;;;5072500;28;20052;-71
2022/12/31 02:03:07;;;;;;;7.18;1.50;;;;;;;;;;5056149;28;20079;-71
2022/12/31 02:05:33;;;;;;;5.55;1.60;;;;;;;;;;5073808;28;20032;-71
2022/12/31 02:07:59;;;;;;;10.40;1.77;;;;;;;;;;5072535;28;20040;-71
2022/12/31 02:10:25;;;;;;;4.57;1.20;;;;;;;;;;5072678;28;20557;-71
2022/12/31 02:12:51;;;;;;;9.00;1.33;;;;;;;;;;5072141;28;20044;-71
2022/12/31 02:15:20;;;;;;;8.02;1.40;;;;;;;;;;5072857;28;20442;-71
2022/12/31 02:17:50;;;;;;;7.20;1.40;;;;;;;;;;5072335;28;20043;-71
2022/12/31 02:20:17;;;;;;;4.45;1.08;;;;;;;;;;5072392;28;20052;-71
2022/12/31 02:22:46;;;;;;;5.38;1.15;;;;;;;;;;5072356;28;20041;-71
2022/12/31 02:25:35;;;;;;;4.75;0.98;;;;;;;;;;5072370;28;20123;-71
2022/12/31 02:28:10;;;;;;;4.13;0.80;;;;;;;;;;5072103;28;20040;-71
2022/12/31 02:30:36;;;;;;;3.53;0.80;;;;;;;;;;5044569;28;20127;-71
2022/12/31 02:33:13;;;;;;;4.38;1.13;;;;;;;;;;5072187;28;20287;-71
2022/12/31 02:35:51;;;;;;;4.00;0.80;;;;;;;;;;5105513;28;20374;-71
2022/12/31 02:38:38;;;;;;;4.07;1.00;;;;;;;;;;5072313;28;20040;-71
2022/12/31 02:41:04;;;;;;;2.95;0.70;;;;;;;;;;5072000;28;20048;-71
2022/12/31 02:43:30;;;;;;;3.47;0.70;;;;;;;;;;5073483;28;20119;-71
2022/12/31 02:46:08;;;;;;;5.50;0.90;;;;;;;;;;5054927;28;20044;-71
2022/12/31 02:48:46;;;;;;;4.10;0.80;;;;;;;;;;5071337;28;20059;-72
2022/12/31 02:51:34;;;;;;;5.97;1.10;;;;;;;;;;5055004;28;20505;-71
2022/12/31 02:54:23;;;;;;;4.50;0.73;;;;;;;;;;5072074;28;20580;-71
2022/12/31 02:57:00;;;;;;;6.63;0.90;;;;;;;;;;5054867;28;20045;-71
2022/12/31 03:02:18;;;;;;;5.55;1.00;;;;;;;;;;5049989;28;20049;-71
2022/12/31 03:04:50;;;;;;;6.07;1.17;;;;;;;;;;5055070;28;20045;-71
2022/12/31 03:07:21;;;;;;;5.70;1.15;;;;;;;;;;5104956;28;20040;-71
2022/12/31 03:09:47;;;;;;;6.50;1.20;;;;;;;;;;5078191;28;20059;-71
2022/12/31 03:14:59;;;;;;;4.38;0.90;;;;;;;;;;5071359;28;20032;-71
2022/12/31 03:17:25;;;;;;;6.63;1.27;;;;;;;;;;5071353;28;20123;-71
2022/12/31 03:22:38;;;;;;;4.90;0.93;;;;;;;;;;5071368;28;20049;-71
2022/12/31 03:27:51;;;;;;;4.88;1.13;;;;;;;;;;5070890;28;20074;-72
2022/12/31 03:30:18;;;;;;;7.35;1.20;;;;;;;;;;5067147;28;20051;-71
2022/12/31 03:32:45;;;;;;;6.38;1.20;;;;;;;;;;5060640;28;20170;-72
2022/12/31 03:35:12;;;;;;;5.57;1.10;;;;;;;;;;5053765;28;20489;-71
2022/12/31 03:37:39;;;;;;;5.50;1.17;;;;;;;;;;5054156;28;20036;-71
2022/12/31 03:40:06;;;;;;;5.63;1.20;;;;;;;;;;5070917;28;20040;-71
2022/12/31 03:42:32;;;;;;;6.03;1.40;;;;;;;;;;5072666;28;20032;-71
2022/12/31 03:44:58;;;;;;;6.07;1.20;;;;;;;;;;5070704;28;20072;-71
2022/12/31 03:47:24;;;;;;;6.22;1.77;;;;;;;;;;5070893;28;20059;-71
2022/12/31 03:49:50;;;;;;;6.03;1.40;;;;;;;;;;5071364;28;20143;-71
2022/12/31 03:52:16;;;;;;;6.70;1.58;;;;;;;;;;5071034;28;20072;-71
2022/12/31 03:54:43;;;;;;;8.32;2.00;;;;;;;;;;5070455;28;20064;-71
2022/12/31 03:57:09;;;;;;;8.70;1.80;;;;;;;;;;5053938;28;20040;-71
2022/12/31 03:59:35;;;;;;;6.13;1.88;;;;;;;;;;5070883;28;20040;-71
2022/12/31 04:02:01;;;;;;;6.03;1.92;;;;;;;;;;5053740;28;20079;-71
2022/12/31 04:04:27;;;;;;;7.68;2.17;;;;;;;;;;5070794;28;20515;-71
2022/12/31 04:06:53;;;;;;;8.10;2.10;;;;;;;;;;5070640;28;20075;-71
2022/12/31 04:09:19;;;;;;;10.27;2.28;;;;;;;;;;5053971;28;20040;-71
2022/12/31 04:11:45;;;;;;;12.38;2.47;;;;;;;;;;5070238;28;20037;-71
2022/12/31 04:14:11;;;;;;;11.45;2.40;;;;;;;;;;5054162;28;20102;-71
2022/12/31 04:16:38;;;;;;;7.43;2.10;;;;;;;;;;5072087;28;20542;-71
2022/12/31 04:19:04;;;;;;;8.18;2.20;;;;;;;;;;5070157;28;20119;-70
2022/12/31 04:21:30;;;;;;;9.45;2.28;;;;;;;;;;5070724;28;20055;-70
2022/12/31 04:23:56;;;;;;;6.70;2.22;;;;;;;;;;5053544;28;20048;-70
2022/12/31 04:26:22;;;;;;;9.65;2.63;;;;;;;;;;5053930;28;20036;-70
2022/12/31 04:28:48;;;;;;;9.73;2.35;;;;;;;;;;5069988;28;20185;-70
2022/12/31 04:31:14;;;;;;;9.68;2.70;;;;;;;;;;5070381;28;20048;-70
2022/12/31 04:33:40;;;;;;;8.98;2.42;;;;;;;;;;5071041;28;20040;-70
2022/12/31 04:36:07;;;;;;;9.05;2.40;;;;;;;;;;5070003;28;20051;-70
2022/12/31 04:38:33;;;;;;;9.80;2.58;;;;;;;;;;5070257;28;20071;-70
2022/12/31 04:41:19;;;;;;;7.90;2.60;;;;;;;;;;5053273;28;20060;-70
2022/12/31 04:43:50;;;;;;;7.38;2.55;;;;;;;;;;5070486;28;20056;-70
2022/12/31 04:46:17;;;;;;;6.93;2.45;;;;;;;;;;5054093;28;20438;-70
2022/12/31 04:48:43;;;;;;;7.75;2.92;;;;;;;;;;5072479;28;20400;-70
2022/12/31 04:51:10;;;;;;;9.23;3.03;;;;;;;;;;5073329;28;20056;-70
2022/12/31 04:53:36;;;;;;;7.03;3.20;;;;;;;;;;5057370;28;20044;-70
2022/12/31 04:56:02;;;;;;;11.43;4.00;;;;;;;;;;5075085;28;20111;-71
2022/12/31 04:58:29;;;;;;;10.07;3.40;;;;;;;;;;5073945;28;20059;-71
2022/12/31 05:00:55;;;;;;;12.50;3.67;;;;;;;;;;5068668;28;20070;-71
2022/12/31 05:03:22;;;;;;;9.43;3.70;;;;;;;;;;5046649;28;20055;-71
2022/12/31 05:05:49;;;;;;;9.57;3.58;;;;;;;;;;5074478;28;20072;-71
2022/12/31 05:08:15;;;;;;;11.35;3.95;;;;;;;;;;5073565;28;20048;-71
2022/12/31 05:10:42;;;;;;;9.57;3.90;;;;;;;;;;5057059;28;20558;-71
2022/12/31 05:13:08;;;;;;;11.80;3.80;;;;;;;;;;5073210;28;20119;-71
2022/12/31 05:15:34;;;;;;;8.68;3.80;;;;;;;;;;5073974;28;20032;-71
2022/12/31 05:18:00;;;;;;;12.30;5.00;;;;;;;;;;5072995;28;20048;-71
2022/12/31 05:20:26;;;;;;;8.93;4.53;;;;;;;;;;5056821;28;20076;-71
2022/12/31 05:22:52;;;;;;;13.40;5.53;;;;;;;;;;5074862;28;20513;-72
2022/12/31 05:25:18;;;;;;;11.90;5.40;;;;;;;;;;5040130;28;20050;-71
2022/12/31 05:27:44;;;;;;;15.75;6.40;;;;;;;;;;5073515;28;20094;-70
2022/12/31 05:30:10;;;;;;;13.85;6.50;;;;;;;;;;5072741;28;20045;-71
2022/12/31 05:32:36;;;;;;;12.95;7.05;;;;;;;;;;5074710;28;20036;-71
2022/12/31 05:35:03;;;;;;;12.95;7.07;;;;;;;;;;5072192;28;20106;-71
2022/12/31 05:37:30;;;;;;;14.20;7.25;;;;;;;;;;5073230;28;20119;-71
2022/12/31 05:39:56;;;;;;;14.00;7.00;;;;;;;;;;5073009;28;20119;-71
2022/12/31 05:42:22;;;;;;;13.38;7.20;;;;;;;;;;5073421;28;20509;-71
2022/12/31 05:44:48;;;;;;;13.23;7.03;;;;;;;;;;5107367;28;20497;-71
2022/12/31 05:47:18;;;;;;;11.35;6.28;;;;;;;;;;5072692;28;20101;-70
2022/12/31 05:49:44;;;;;;;10.75;6.32;;;;;;;;;;5056191;28;20101;-70
2022/12/31 05:52:10;;;;;;;12.90;5.60;;;;;;;;;;5072719;28;20552;-71
2022/12/31 05:54:36;;;;;;;10.80;5.60;;;;;;;;;;5073341;28;20080;-70
2022/12/31 05:57:03;;;;;;;11.27;5.18;;;;;;;;;;5072657;28;20040;-70
2022/12/31 05:59:29;;;;;;;12.10;4.75;;;;;;;;;;5055758;28;20036;-70
2022/12/31 06:01:55;;;;;;;11.15;4.72;;;;;;;;;;5073160;28;20493;-70
2022/12/31 06:04:21;;;;;;;10.52;4.70;;;;;;;;;;5072317;28;20063;-70
2022/12/31 06:06:48;;;;;;;13.60;4.32;;;;;;;;;;5073891;28;20036;-70
2022/12/31 06:09:14;;;;;;;9.27;4.18;;;;;;;;;;5072621;28;20086;-70
2022/12/31 06:11:41;;;;;;;9.55;4.18;;;;;;;;;;5074113;28;20032;-70
2022/12/31 06:14:07;;;;;;;9.88;4.10;;;;;;;;;;5055718;28;20040;-71
2022/12/31 06:16:33;;;;;;;11.63;3.70;;;;;;;;;;5072587;28;20120;-70
2022/12/31 06:18:59;;;;;;;11.23;3.78;;;;;;;;;;5055763;28;20051;-71
2022/12/31 06:21:25;;;;;;;9.10;3.65;;;;;;;;;;5072246;28;20051;-70
2022/12/31 06:23:51;;;;;;;8.90;3.60;;;;;;;;;;5072862;28;20489;-70
2022/12/31 06:26:17;;;;;;;8.70;3.33;;;;;;;;;;5055491;28;20099;-71
2022/12/31 06:28:43;;;;;;;9.40;3.72;;;;;;;;;;5072622;28;20041;-70
2022/12/31 06:31:11;;;;;;;7.38;3.42;;;;;;;;;;5071789;28;20036;-71
2022/12/31 06:33:37;;;;;;;8.55;3.45;;;;;;;;;;5072005;28;20481;-71
2022/12/31 06:36:04;;;;;;;7.03;3.33;;;;;;;;;;5071765;28;20041;-70
2022/12/31 06:38:32;;;;;;;8.10;3.47;;;;;;;;;;5072332;28;20493;-70
2022/12/31 06:41:02;;;;;;;7.65;3.80;;;;;;;;;;5072377;28;20036;-71
2022/12/31 06:43:28;;;;;;;6.97;3.55;;;;;;;;;;5073611;28;20527;-71
2022/12/31 06:45:54;;;;;;;8.70;4.05;;;;;;;;;;5072418;28;20503;-71
2022/12/31 06:48:20;;;;;;;9.00;4.32;;;;;;;;;;5073081;28;20044;-71
2022/12/31 06:50:46;;;;;;;8.00;4.10;;;;;;;;;;5072819;28;20052;-71
2022/12/31 06:53:12;;;;;;;7.82;4.35;;;;;;;;;;5054830;28;20049;-71
2022/12/31 06:55:39;;;;;;;10.73;5.05;;;;;;;;;;5071840;28;20036;-71
2022/12/31 06:58:05;;;;;;;6.63;4.38;;;;;;;;;;5071655;28;20040;-71
2022/12/31 07:00:31;;;;;;;9.50;5.00;;;;;;;;;;5071803;28;20501;-71
2022/12/31 07:03:03;;;;;;;10.82;4.90;;;;;;;;;;5071922;28;20040;-71
2022/12/31 07:05:29;;;;;;;8.65;4.80;;;;;;;;;;5071568;28;20044;-70
2022/12/31 07:07:56;;;;;;;8.52;5.20;;;;;;;;;;5071559;28;20037;-70
2022/12/31 07:10:22;;;;;;;8.60;5.43;;;;;;;;;;5070597;28;20051;-71
2022/12/31 07:13:04;;;;;;;9.60;6.05;;;;;;;;;;5055009;28;20063;-71
2022/12/31 07:15:33;;;;;;;8.48;5.30;;;;;;;;;;5047085;28;20039;-71
2022/12/31 07:18:02;;;;;;;7.93;5.13;;;;;;;;;;5071319;28;20037;-71
2022/12/31 07:20:28;;;;;;;7.35;4.50;;;;;;;;;;5070963;28;20039;-71
2022/12/31 07:22:54;;;;;;;8.73;4.95;;;;;;;;;;5054544;28;20065;-71
2022/12/31 07:25:22;;;;;;;7.82;4.07;;;;;;;;;;5070765;28;20044;-71
2022/12/31 07:28:06;;;;;;;8.50;4.38;;;;;;;;;;5072674;28;20040;-71
2022/12/31 07:30:35;;;;;;;6.97;4.00;;;;;;;;;;5071060;28;20043;-71
2022/12/31 07:33:17;;;;;;;7.72;3.90;;;;;;;;;;5071617;28;20044;-71
2022/12/31 07:36:18;;;;;;;7.90;3.78;;;;;;;;;;5071131;28;20064;-70
2022/12/31 07:38:47;;;;;;;7.60;3.72;;;;;;;;;;5033402;28;20040;-71
2022/12/31 07:41:32;;;;;;;7.15;3.63;;;;;;;;;;5063485;28;20573;-71
2022/12/31 07:44:05;;;;;;;8.13;3.80;;;;;;;;;;5071057;28;20028;-70
2022/12/31 07:46:46;;;;;;;6.78;3.28;;;;;;;;;;5070628;28;20044;-71
2022/12/31 07:49:12;;;;;;;9.05;3.90;;;;;;;;;;5070321;28;20048;-72
2022/12/31 07:51:39;;;;;;;6.25;3.58;;;;;;;;;;5071038;28;20064;-71
2022/12/31 07:54:05;;;;;;;6.53;3.58;;;;;;;;;;5054479;28;20042;-71
2022/12/31 07:56:32;;;;;;;7.13;3.70;;;;;;;;;;5070762;28;20032;-71
2022/12/31 07:59:16;;;;;;;7.40;3.90;;;;;;;;;;5071188;28;20044;-71
2022/12/31 08:01:45;;;;;;;6.82;4.00;;;;;;;;;;5071135;28;20066;-71
2022/12/31 08:04:26;;;;;;;7.32;3.83;;;;;;;;;;5071784;28;20083;-71
2022/12/31 08:07:04;;;;;;;6.75;3.72;;;;;;;;;;5072352;28;20032;-72
2022/12/31 08:09:30;;;;;;;8.05;4.43;;;;;;;;;;5070491;28;20044;-72
2022/12/31 08:12:00;;;;;;;8.75;4.82;;;;;;;;;;5070687;28;20045;-72
2022/12/31 08:14:27;;;;;;;8.38;5.15;;;;;;;;;;5071183;28;20054;-71
2022/12/31 08:16:54;;;;;;;11.38;5.13;;;;;;;;;;5070986;28;20040;-70
2022/12/31 08:19:24;;;;;;;9.20;4.90;;;;;;;;;;5070550;28;20055;-71
2022/12/31 08:21:50;;;;;;;9.70;5.65;;;;;;;;;;5071513;28;20071;-71
2022/12/31 08:24:22;;;;;;;9.73;5.72;;;;;;;;;;5057931;28;20037;-71
2022/12/31 08:26:51;;;;;;;11.27;5.80;;;;;;;;;;5075994;28;20044;-71
2022/12/31 08:29:24;;;;;;;10.23;5.55;;;;;;;;;;5074308;28;20040;-72
2022/12/31 08:32:10;;;;;;;9.40;5.57;;;;;;;;;;5074888;28;20036;-71
2022/12/31 08:35:00;;;;;;;12.13;6.38;;;;;;;;;;5066635;28;20056;-71
2022/12/31 08:37:31;;;;;;;10.18;5.40;;;;;;;;;;5074139;28;20040;-71
2022/12/31 08:40:00;;;;;;;8.63;5.22;;;;;;;;;;5074454;28;20048;-71
2022/12/31 08:42:41;;;;;;;7.95;5.13;;;;;;;;;;5057278;28;20044;-72
2022/12/31 08:45:07;;;;;;;9.07;4.57;;;;;;;;;;5075941;28;20037;-72
2022/12/31 08:47:36;;;;;;;7.53;4.65;;;;;;;;;;5073742;28;20094;-71
2022/12/31 08:50:03;;;;;;;6.72;4.60;;;;;;;;;;5074388;28;20052;-72
2022/12/31 08:52:29;;;;;;;8.25;4.70;;;;;;;;;;5107853;28;20051;-72
2022/12/31 08:54:55;;;;;;;7.13;4.38;;;;;;;;;;5074287;28;20474;-72
2022/12/31 08:57:35;;;;;;;6.82;4.22;;;;;;;;;;5073597;28;20040;-71
2022/12/31 09:00:06;;;;;;;6.90;4.13;;;;;;;;;;5075491;28;20123;-71
2022/12/31 09:02:55;;;;;;;6.13;4.18;;;;;;;;;;5073681;28;20045;-71
2022/12/31 09:05:22;;;;;;;6.00;3.65;;;;;;;;;;5057244;28;20574;-72
2022/12/31 09:08:06;;;;;;;6.53;3.30;;;;;;;;;;5073739;28;20150;-72
2022/12/31 09:10:38;;;;;;;4.68;2.90;;;;;;;;;;5061493;28;20037;-72
2022/12/31 09:13:10;;;;;;;5.72;2.90;;;;;;;;;;5073624;28;20033;-72
2022/12/31 09:15:42;;;;;;;3.75;2.20;;;;;;;;;;5074718;28;20033;-72
2022/12/31 09:18:08;;;;;;;2.90;1.85;;;;;;;;;;5057303;28;20045;-72
2022/12/31 09:20:35;;;;;;;2.78;1.42;;;;;;;;;;5073528;28;20043;-71
2022/12/31 09:23:02;;;;;;;3.38;1.50;;;;;;;;;;5073496;28;20052;-70
2022/12/31 09:25:28;;;;;;;4.47;1.00;;;;;;;;;;5107510;28;20405;-72
2022/12/31 09:27:57;;;;;;;2.22;1.23;;;;;;;;;;5056791;28;20044;-72
2022/12/31 09:30:26;;;;;;;2.45;0.90;;;;;;;;;;5072920;28;20047;-72
2022/12/31 09:33:07;;;;;;;1.73;0.73;;;;;;;;;;5073594;28;20044;-72
2022/12/31 09:35:49;;;;;;;2.45;0.80;;;;;;;;;;5070911;28;20090;-71
2022/12/31 09:38:29;;;;;;;1.45;0.52;;;;;;;;;;5073610;28;20400;-71
2022/12/31 09:41:15;;;;;;;3.95;0.60;;;;;;;;;;5073445;28;20037;-72
2022/12/31 09:43:47;;;;;;;2.60;0.70;;;;;;;;;;5072797;28;20048;-72
2022/12/31 09:46:25;;;;;;;3.38;0.60;;;;;;;;;;5073804;28;20131;-73
2022/12/31 09:48:51;;;;;;;6.80;3.92;;;;;;;;;;5073367;28;20063;-71
2022/12/31 09:51:27;;;;;;;3.65;0.90;;;;;;;;;;5072923;28;20452;-72
2022/12/31 09:53:53;;;;;;;;;;;;;;;;;;5073557;28;20477;-73
2022/12/31 09:56:28;;;;;;;4.35;0.82;;;;;;;;;;5073075;28;19921;-72
2022/12/31 09:59:02;;;;;;;4.50;1.48;;;;;;;;;;5074253;28;20037;-72
2022/12/31 10:01:32;;;;;;;2.88;0.70;;;;;;;;;;5072816;28;20049;-72
2022/12/31 10:04:16;;;;;;;7.18;0.95;;;;;;;;;;5074657;28;20044;-72
2022/12/31 10:07:18;;;;;;;3.30;0.73;;;;;;;;;;5049506;28;20401;-73
2022/12/31 10:09:50;;;;;;;4.65;1.38;;;;;;;;;;5034655;28;20151;-72
2022/12/31 10:12:34;;;;;;;6.05;0.80;;;;;;;;;;5066706;28;20517;-71
2022/12/31 10:15:19;;;;;;;6.28;0.88;;;;;;;;;;5072570;28;20047;-71
2022/12/31 10:17:51;;;;;;;6.18;1.00;;;;;;;;;;5072282;28;20119;-72
2022/12/31 10:20:17;;;;;;;5.47;0.98;;;;;;;;;;5074149;28;20032;-72
2022/12/31 10:22:47;;;;;;;5.85;1.10;;;;;;;;;;5055487;28;20067;-71
2022/12/31 10:25:25;;;;;;;5.65;0.85;;;;;;;;;;5073871;28;20041;-71
2022/12/31 10:27:54;;;;;;;5.85;1.00;;;;;;;;;;5072132;28;20393;-71
2022/12/31 10:30:21;;;;;;;6.13;1.10;;;;;;;;;;5068444;28;20509;-71
2022/12/31 10:32:53;;;;;;;4.70;1.52;;;;;;;;;;5062544;28;20037;-71
2022/12/31 10:35:34;;;;;;;5.28;0.95;;;;;;;;;;5072161;28;20028;-71
2022/12/31 10:38:00;;;;;;;7.28;1.25;;;;;;;;;;5072356;28;20041;-72
2022/12/31 10:40:39;;;;;;;9.13;1.20;;;;;;;;;;5072283;28;20427;-71
2022/12/31 10:43:17;;;;;;;9.38;1.30;;;;;;;;;;5071918;28;20127;-71
2022/12/31 10:46:02;;;;;;;5.70;1.10;;;;;;;;;;5071701;28;20032;-71
2022/12/31 10:48:40;;;;;;;6.72;1.27;;;;;;;;;;5072014;28;20048;-72
2022/12/31 10:51:25;;;;;;;7.50;1.20;;;;;;;;;;5045928;28;20049;-71
2022/12/31 10:54:10;;;;;;;8.82;1.45;;;;;;;;;;5071243;28;20048;-71
2022/12/31 10:56:54;;;;;;;8.80;1.20;;;;;;;;;;5071623;28;20063;-72
2022/12/31 10:59:23;;;;;;;6.43;1.20;;;;;;;;;;5071704;28;20120;-71
2022/12/31 11:02:22;;;;;;;4.53;1.10;;;;;;;;;;5071379;28;20123;-71
2022/12/31 11:05:11;;;;;;;6.40;1.25;;;;;;;;;;5049331;28;20051;-72
2022/12/31 11:07:37;;;;;;;4.72;1.20;;;;;;;;;;5065782;28;20051;-72
2022/12/31 11:10:36;;;;;;;5.45;1.50;;;;;;;;;;5071796;28;20386;-71
2022/12/31 11:13:11;;;;;;;3.70;0.77;;;;;;;;;;5049232;28;20044;-71
2022/12/31 11:15:52;;;;;;;3.70;0.90;;;;;;;;;;5071174;28;20032;-72
2022/12/31 11:18:57;;;;;;;4.97;1.00;;;;;;;;;;5071576;28;20401;-71
2022/12/31 11:21:32;;;;;;;4.68;0.98;;;;;;;;;;5034002;28;20441;-72
2022/12/31 11:24:17;;;;;;;4.30;1.10;;;;;;;;;;5033799;28;20050;-73
2022/12/31 11:27:02;;;;;;;5.13;1.52;;;;;;;;;;5057379;28;20044;-72
2022/12/31 11:29:33;;;;;;;5.75;1.30;;;;;;;;;;5071211;28;20080;-72
2022/12/31 11:32:06;;;;;;;5.57;1.80;;;;;;;;;;5071192;28;20044;-72
2022/12/31 11:34:47;;;;;;;5.85;1.90;;;;;;;;;;5069818;28;20050;-72
2022/12/31 11:37:27;;;;;;;5.38;2.20;;;;;;;;;;5072570;28;20068;-72
2022/12/31 11:39:59;;;;;;;6.65;2.58;;;;;;;;;;5070837;28;20094;-71
2022/12/31 11:42:44;;;;;;;5.13;2.15;;;;;;;;;;5054687;28;20040;-72
2022/12/31 11:45:10;;;;;;;7.63;2.70;;;;;;;;;;5070962;28;20055;-71
2022/12/31 11:47:57;;;;;;;7.90;2.70;;;;;;;;;;5070966;28;20064;-72
2022/12/31 11:50:46;;;;;;;8.52;2.90;;;;;;;;;;5054143;28;20416;-72
2022/12/31 11:53:24;;;;;;;9.63;2.85;;;;;;;;;;5065773;28;20132;-72
2022/12/31 11:55:55;;;;;;;6.88;2.45;;;;;;;;;;5070762;28;20098;-72
2022/12/31 11:58:28;;;;;;;10.90;2.90;;;;;;;;;;5061223;28;20452;-72
2022/12/31 12:01:04;;;;;;;6.75;2.85;;;;;;;;;;5067141;28;20040;-72
2022/12/31 12:03:31;;;;;;;8.55;2.70;;;;;;;;;;5071054;28;20047;-72
2022/12/31 12:05:57;;;;;;;9.43;2.75;;;;;;;;;;5071839;28;20041;-72
2022/12/31 12:08:26;;;;;;;5.20;2.50;;;;;;;;;;5070837;28;20048;-72
2022/12/31 12:10:54;;;;;;;6.40;2.53;;;;;;;;;;5070223;28;20493;-72
2022/12/31 12:13:22;;;;;;;6.85;2.60;;;;;;;;;;5071315;28;20036;-72
2022/12/31 12:18:46;;;;;;;6.40;2.88;;;;;;;;;;5070915;28;20119;-72
2022/12/31 12:21:16;;;;;;;6.18;2.30;;;;;;;;;;5071330;28;20040;-73
2022/12/31 12:23:54;;;;;;;4.03;1.80;;;;;;;;;;5071204;28;20509;-72
2022/12/31 12:26:52;;;;;;;6.53;1.70;;;;;;;;;;5071091;28;20048;-73
2022/12/31 12:29:19;;;;;;;7.03;2.20;;;;;;;;;;5050079;28;20051;-72
2022/12/31 12:32:01;;;;;;;5.57;1.60;;;;;;;;;;5071006;28;20032;-73
2022/12/31 12:34:37;;;;;;;5.28;1.50;;;;;;;;;;5071731;28;20040;-72
2022/12/31 12:37:04;;;;;;;6.70;1.83;;;;;;;;;;5070496;28;20082;-72
2022/12/31 12:39:33;;;;;;;6.45;1.50;;;;;;;;;;5054093;28;20048;-72
2022/12/31 12:42:00;;;;;;;7.03;1.80;;;;;;;;;;5071224;28;20044;-72
2022/12/31 12:44:26;;;;;;;7.97;1.67;;;;;;;;;;5070392;28;20037;-72
2022/12/31 12:46:53;;;;;;;6.53;1.40;;;;;;;;;;5069905;28;20090;-72
2022/12/31 12:49:23;;;;;;;7.10;1.80;;;;;;;;;;5053876;28;20070;-72
2022/12/31 12:51:55;;;;;;;8.55;1.70;;;;;;;;;;5069922;28;20060;-72
2022/12/31 12:54:28;;;;;;;9.50;2.13;;;;;;;;;;5104062;28;20036;-71
2022/12/31 12:57:12;;;;;;;5.93;1.40;;;;;;;;;;5070039;28;20036;-71
2022/12/31 12:59:57;;;;;;;10.13;2.03;;;;;;;;;;5078443;28;20041;-71
2022/12/31 13:02:33;;;;;;;9.82;1.63;;;;;;;;;;5070260;28;20047;-72
2022/12/31 13:04:59;;;;;;;7.63;1.90;;;;;;;;;;5070098;28;20524;-72
2022/12/31 13:07:43;;;;;;;8.70;1.90;;;;;;;;;;5053572;28;20048;-72
2022/12/31 13:10:18;;;;;;;8.55;1.50;;;;;;;;;;5072617;28;20041;-72
2022/12/31 13:13:03;;;;;;;10.23;1.60;;;;;;;;;;5073998;28;20044;-72
2022/12/31 13:15:33;;;;;;;9.60;1.50;;;;;;;;;;5082812;28;20033;-72
2022/12/31 13:18:05;;;;;;;6.82;1.50;;;;;;;;;;5059287;28;20049;-72
2022/12/31 13:20:49;;;;;;;8.68;1.55;;;;;;;;;;5073692;28;20119;-72
2022/12/31 13:23:22;;;;;;;10.32;1.80;;;;;;;;;;5073409;28;20056;-72
2022/12/31 13:25:48;;;;;;;8.45;1.55;;;;;;;;;;5073845;28;20036;-72
2022/12/31 13:28:15;;;;;;;8.35;1.58;;;;;;;;;;5073298;28;20076;-72
2022/12/31 13:30:54;;;;;;;5.88;1.40;;;;;;;;;;5049833;28;20501;-72
2022/12/31 13:33:23;;;;;;;5.43;1.90;;;;;;;;;;5067831;28;20048;-72
2022/12/31 13:35:53;;;;;;;5.88;2.10;;;;;;;;;;5073396;28;20048;-72
2022/12/31 13:38:27;;;;;;;7.25;2.15;;;;;;;;;;5073298;28;20120;-72
2022/12/31 13:40:57;;;;;;;6.40;2.00;;;;;;;;;;5030861;28;20512;-72
2022/12/31 13:43:34;;;;;;;7.97;2.22;;;;;;;;;;5074564;28;20047;-72
2022/12/31 13:46:05;;;;;;;6.05;1.73;;;;;;;;;;5047153;28;20045;-72
2022/12/31 13:48:34;;;;;;;7.45;1.70;;;;;;;;;;5074584;28;20044;-72
2022/12/31 13:51:21;;;;;;;7.28;1.80;;;;;;;;;;5073798;28;20084;-72
2022/12/31 13:53:46;;;;;;;;;;;;;;;;;;5066692;28;20048;-72
2022/12/31 13:56:16;;;;;;;7.30;2.10;;;;;;;;;;5072724;28;19916;-72
2022/12/31 13:58:49;;;;;;;7.28;1.80;;;;;;;;;;5073126;28;20098;-72
2022/12/31 14:01:24;;;;;;;4.75;1.73;;;;;;;;;;5072457;28;20040;-72
2022/12/31 14:03:53;;;;;;;4.40;1.85;;;;;;;;;;5072979;28;20047;-72
2022/12/31 14:06:33;;;;;;;6.15;1.70;;;;;;;;;;5061793;28;20052;-72
2022/12/31 14:09:00;;;;;;;5.88;2.22;;;;;;;;;;5058327;28;20099;-72
2022/12/31 14:11:41;;;;;;;5.57;2.00;;;;;;;;;;5072616;28;20073;-72
2022/12/31 14:14:27;;;;;;;3.95;1.63;;;;;;;;;;5072637;28;20045;-72
2022/12/31 14:17:08;;;;;;;3.38;1.85;;;;;;;;;;5072312;28;20037;-72
2022/12/31 14:19:42;;;;;;;3.70;2.10;;;;;;;;;;5072501;28;20486;-72
2022/12/31 14:22:08;;;;;;;3.35;1.50;;;;;;;;;;5072481;28;20044;-72
2022/12/31 14:24:34;;;;;;;5.90;1.90;;;;;;;;;;5072679;28;20044;-72
2022/12/31 14:27:03;;;;;;;4.40;2.10;;;;;;;;;;5072179;28;20117;-72
2022/12/31 14:29:35;;;;;;;4.22;2.05;;;;;;;;;;5072546;28;20127;-72
2022/12/31 14:32:01;;;;;;;5.18;1.95;;;;;;;;;;5073452;28;20115;-72
2022/12/31 14:34:46;;;;;;;7.47;2.35;;;;;;;;;;5072117;28;20052;-72
2022/12/31 14:37:12;;;;;;;5.20;2.20;;;;;;;;;;5071972;28;20036;-72
2022/12/31 14:39:43;;;;;;;7.80;2.22;;;;;;;;;;5072312;28;20044;-72
2022/12/31 14:42:16;;;;;;;5.47;1.95;;;;;;;;;;5072064;28;20616;-73
2022/12/31 14:44:54;;;;;;;4.30;2.10;;;;;;;;;;5055397;28;20036;-72
2022/12/31 14:47:40;;;;;;;7.47;3.13;;;;;;;;;;5050980;28;20047;-72
2022/12/31 14:50:20;;;;;;;6.57;2.47;;;;;;;;;;5064416;28;20055;-73
2022/12/31 14:53:06;;;;;;;7.47;2.70;;;;;;;;;;5045494;28;20040;-72
2022/12/31 14:55:34;;;;;;;4.57;2.17;;;;;;;;;;5055063;28;20044;-72
2022/12/31 14:58:04;;;;;;;6.68;2.10;;;;;;;;;;5071741;28;20055;-72
2022/12/31 15:00:32;;;;;;;6.15;2.70;;;;;;;;;;5071748;28;20590;-72
2022/12/31 15:03:00;;;;;;;5.38;2.63;;;;;;;;;;5071694;28;20047;-72
2022/12/31 15:05:28;;;;;;;6.82;2.30;;;;;;;;;;5054809;28;20044;-71
2022/12/31 15:08:01;;;;;;;6.72;2.42;;;;;;;;;;5071859;28;20371;-71
2022/12/31 15:10:36;;;;;;;7.32;2.22;;;;;;;;;;5071151;28;20052;-73
2022/12/31 15:13:07;;;;;;;3.83;2.20;;;;;;;;;;5055128;28;20048;-72
2022/12/31 15:16:01;;;;;;;5.75;2.17;;;;;;;;;;5055239;28;20285;-72
2022/12/31 15:18:46;;;;;;;5.72;2.20;;;;;;;;;;5071078;28;20060;-72
2022/12/31 15:21:12;;;;;;;6.05;2.85;;;;;;;;;;5044723;28;20374;-72
2022/12/31 15:23:41;;;;;;;6.13;2.05;;;;;;;;;;5071686;28;20041;-72